Fort Lauderdale Executive Airport Fort Lauderdale US
ICAO: KFXE
IATA: FXE
Category: Medium
Scheduled Services: No

Elevation: 13 ft
TransAlt. 18000 ft.

Airport Communications:
MIAMI APP/DEP:119.7
ATIS:119.85
CLNC DEL:127.95
EXECUTIVE GND:121.75
EXECUTIVE TWR:120.9
UNICOM:122.95

KFXE Zoom In..

If you have problems with the map follow the link
https://www.worldairports.se/pages/airport.php?
ICAO=KFXE

Runways:

(A) RW 08 length 6002 ft width 100 ft
ILS 111.10 / hdg 87

(B) RW 13 length 4000 ft width 100 ft
---- / hdg 132

(C) RW 26 length 6002 ft width 100 ft
---- / hdg 267

(D) RW 31 length 4000 ft width 100 ft
---- / hdg 312

Location; KFXE
Day. 14 / Time. 18.53 Zulu
* Altimeter: 29.83
* Temperature: 26° c. 78.8°f.
* Wind from: 270° Speed 15 kn with Gusts up to 23 kn.
Dewpoint: 19° c.
Visibility: 10 Statute Miles.
Clouds: Few 3400 ft.
Clouds: Few 4100 ft.
Clouds: Scattered 6000 ft.

KFXE 141853Z 27015G23KT 10SM FEW034 FEW041 SCT060 26/19 A2983 RMK AO2 PK WND 27031/1825 SLP105 T02610189


Wind From 270°
Speed 15 kn.

 
 
jpsmedia worldairports.se 2019   terms of use